createdAt,value
2018-07-20T00:00:23.152Z,0.00
2018-07-20T00:01:23.111Z,0.00
2018-07-20T00:02:23.124Z,0.00
2018-07-20T00:03:23.107Z,0.00
2018-07-20T00:04:23.105Z,0.00
2018-07-20T00:05:23.102Z,0.00
2018-07-20T00:06:23.106Z,0.00
2018-07-20T00:07:23.106Z,0.00
2018-07-20T00:08:23.099Z,0.00
2018-07-20T00:09:23.097Z,0.00
2018-07-20T00:10:23.098Z,0.00
2018-07-20T00:11:23.091Z,0.00
2018-07-20T00:12:23.091Z,0.00
2018-07-20T00:13:23.089Z,0.00
2018-07-20T00:14:23.092Z,0.00
2018-07-20T00:15:23.092Z,0.00
2018-07-20T00:16:23.085Z,0.00
2018-07-20T00:17:23.080Z,0.00
2018-07-20T00:18:23.081Z,0.00
2018-07-20T00:19:23.077Z,0.00
2018-07-20T00:20:23.076Z,0.00
2018-07-20T00:21:23.082Z,0.00
2018-07-20T00:22:23.075Z,0.00
2018-07-20T00:23:23.070Z,0.00
2018-07-20T00:24:23.072Z,0.00
2018-07-20T00:25:23.065Z,0.00
2018-07-20T00:26:23.068Z,0.00
2018-07-20T00:27:23.065Z,0.00
2018-07-20T00:28:23.073Z,0.00
2018-07-20T00:29:23.064Z,0.00
2018-07-20T00:30:23.075Z,0.00
2018-07-20T00:31:23.057Z,0.00
2018-07-20T00:32:23.055Z,0.00
2018-07-20T00:33:23.051Z,0.00
2018-07-20T00:34:23.050Z,0.00
2018-07-20T00:35:23.051Z,0.00
2018-07-20T00:36:23.051Z,0.00
2018-07-20T00:37:23.046Z,0.00
2018-07-20T00:38:23.047Z,0.00
2018-07-20T00:39:23.044Z,0.00
2018-07-20T00:40:23.041Z,0.00
2018-07-20T00:41:23.044Z,0.00
2018-07-20T00:42:23.039Z,0.00
2018-07-20T00:43:23.063Z,0.00
2018-07-20T00:44:23.033Z,0.00
2018-07-20T00:45:23.028Z,0.00
2018-07-20T00:46:23.055Z,0.00
2018-07-20T00:47:23.026Z,0.00
2018-07-20T00:48:23.026Z,0.00
2018-07-20T00:49:23.021Z,0.00
2018-07-20T00:50:23.025Z,0.00
2018-07-20T00:51:23.020Z,0.00
2018-07-20T00:52:23.016Z,0.00
2018-07-20T00:53:23.017Z,0.00
2018-07-20T00:54:23.014Z,0.00
2018-07-20T00:55:23.008Z,0.00
2018-07-20T00:56:23.015Z,0.00
2018-07-20T00:57:23.005Z,0.00
2018-07-20T00:58:23.007Z,0.00
2018-07-20T00:59:23.005Z,0.00
2018-07-20T01:00:22.998Z,0.00
2018-07-20T01:01:22.997Z,0.00
2018-07-20T01:02:22.998Z,0.00
2018-07-20T01:03:23.005Z,0.00
2018-07-20T01:04:22.995Z,0.00
2018-07-20T01:05:23.017Z,0.00
2018-07-20T01:06:22.991Z,0.00
2018-07-20T01:07:22.987Z,0.00
2018-07-20T01:08:22.983Z,0.00
2018-07-20T01:09:22.981Z,0.00
2018-07-20T01:10:22.978Z,0.00
2018-07-20T01:11:22.983Z,0.00
2018-07-20T01:12:22.980Z,0.00
2018-07-20T01:13:22.977Z,0.00
2018-07-20T01:14:22.975Z,0.00
2018-07-20T01:15:22.968Z,0.00
2018-07-20T01:16:22.968Z,0.00
2018-07-20T01:17:22.968Z,0.00
2018-07-20T01:18:22.963Z,0.00
2018-07-20T01:19:22.970Z,0.00
2018-07-20T01:20:22.960Z,0.00
2018-07-20T01:21:22.962Z,0.00
2018-07-20T01:22:22.955Z,0.00
2018-07-20T01:23:22.951Z,0.00
2018-07-20T01:24:22.952Z,0.00
2018-07-20T01:25:22.953Z,0.00
2018-07-20T01:26:22.948Z,0.00
2018-07-20T01:27:22.943Z,0.00
2018-07-20T01:28:22.944Z,0.00
2018-07-20T01:29:22.936Z,0.00
2018-07-20T01:30:22.931Z,0.00
2018-07-20T01:31:22.932Z,0.00
2018-07-20T01:32:22.928Z,0.00
2018-07-20T01:33:22.930Z,0.00
2018-07-20T01:34:22.926Z,0.00
2018-07-20T01:35:22.924Z,0.00
2018-07-20T01:36:22.923Z,0.00
2018-07-20T01:37:22.917Z,0.00
2018-07-20T01:38:22.918Z,0.00
2018-07-20T01:39:22.917Z,0.00
2018-07-20T01:40:22.916Z,0.00
2018-07-20T01:41:22.911Z,0.00
2018-07-20T01:42:22.906Z,0.00
2018-07-20T01:43:22.909Z,0.00
2018-07-20T01:44:22.903Z,0.00
2018-07-20T01:45:22.905Z,0.00
2018-07-20T01:46:22.898Z,0.00
2018-07-20T01:47:22.896Z,0.00
2018-07-20T01:48:22.894Z,0.00
2018-07-20T01:49:22.889Z,0.00
2018-07-20T01:50:22.886Z,0.00
2018-07-20T01:51:22.891Z,0.00
2018-07-20T01:52:22.921Z,0.00
2018-07-20T01:53:22.884Z,0.00
2018-07-20T01:54:22.877Z,0.00
2018-07-20T01:55:22.898Z,0.00
2018-07-20T01:56:22.877Z,0.00
2018-07-20T01:57:22.870Z,0.00
2018-07-20T01:58:22.870Z,0.00
2018-07-20T01:59:22.865Z,0.00
2018-07-20T02:00:22.863Z,0.00
2018-07-20T02:01:22.877Z,0.00
2018-07-20T02:02:22.863Z,0.00
2018-07-20T02:03:22.855Z,0.00
2018-07-20T02:04:43.881Z,0.00
2018-07-20T02:05:22.853Z,0.00
2018-07-20T02:06:22.844Z,0.00
2018-07-20T02:07:22.841Z,0.00
2018-07-20T02:08:22.841Z,0.00
2018-07-20T02:09:22.847Z,0.00
2018-07-20T02:10:22.837Z,0.00
2018-07-20T02:11:22.833Z,0.00
2018-07-20T02:12:22.830Z,0.00
2018-07-20T02:13:22.828Z,0.00
2018-07-20T02:14:22.830Z,0.00
2018-07-20T02:15:22.824Z,0.00
2018-07-20T02:16:22.825Z,0.00
2018-07-20T02:17:23.423Z,0.00
2018-07-20T02:18:22.816Z,0.00
2018-07-20T02:19:22.812Z,0.00
2018-07-20T02:20:22.828Z,0.00
2018-07-20T02:21:22.843Z,0.00
2018-07-20T02:22:22.806Z,0.00
2018-07-20T02:23:22.836Z,0.00
2018-07-20T02:24:22.810Z,0.00
2018-07-20T02:25:22.808Z,0.00
2018-07-20T02:26:22.795Z,0.00
2018-07-20T02:27:22.790Z,0.00
2018-07-20T02:28:22.795Z,0.00
2018-07-20T02:29:22.815Z,0.00
2018-07-20T02:30:22.785Z,0.00
2018-07-20T02:31:22.786Z,0.00
2018-07-20T02:32:22.783Z,0.00
2018-07-20T02:33:22.780Z,0.00
2018-07-20T02:34:22.771Z,0.00
2018-07-20T02:35:22.770Z,0.00
2018-07-20T02:36:22.770Z,0.00
2018-07-20T02:37:22.765Z,0.00
2018-07-20T02:38:22.762Z,0.00
2018-07-20T02:39:22.758Z,0.00
2018-07-20T02:40:22.759Z,0.00
2018-07-20T02:41:22.754Z,0.00
2018-07-20T02:42:22.750Z,0.00
2018-07-20T02:43:22.759Z,0.00
2018-07-20T02:44:22.747Z,0.00
2018-07-20T02:45:22.744Z,0.00
2018-07-20T02:46:22.740Z,0.00
2018-07-20T02:47:22.737Z,0.00
2018-07-20T02:48:22.733Z,0.00
2018-07-20T02:49:22.731Z,0.00
2018-07-20T02:50:22.727Z,0.00
2018-07-20T02:51:22.727Z,0.00
2018-07-20T02:52:22.721Z,0.00
2018-07-20T02:53:22.719Z,0.00
2018-07-20T02:54:22.716Z,0.00
2018-07-20T02:55:22.717Z,0.00
2018-07-20T02:56:22.712Z,0.00
2018-07-20T02:57:22.713Z,0.00
2018-07-20T02:58:22.707Z,0.00
2018-07-20T02:59:22.714Z,0.00
2018-07-20T03:00:22.704Z,0.00
2018-07-20T03:01:22.698Z,0.00
2018-07-20T03:02:22.696Z,0.00
2018-07-20T03:03:22.690Z,0.00
2018-07-20T03:04:22.694Z,0.00
2018-07-20T03:05:22.719Z,0.00
2018-07-20T03:06:22.692Z,0.00
2018-07-20T03:07:22.683Z,0.00
2018-07-20T03:08:22.681Z,0.00
2018-07-20T03:09:22.743Z,0.00
2018-07-20T03:10:22.674Z,0.00
2018-07-20T03:11:22.669Z,0.00
2018-07-20T03:12:22.671Z,0.00
2018-07-20T03:13:22.668Z,0.00
2018-07-20T03:14:22.669Z,0.00
2018-07-20T03:15:22.660Z,0.00
2018-07-20T03:16:22.659Z,0.00
2018-07-20T03:17:22.660Z,0.00
2018-07-20T03:18:22.651Z,0.00
2018-07-20T03:19:22.662Z,5.63
2018-07-20T03:20:22.647Z,5.63
2018-07-20T03:21:22.645Z,5.63
2018-07-20T03:22:22.638Z,5.63
2018-07-20T03:23:22.643Z,5.63
2018-07-20T03:24:22.633Z,5.63
2018-07-20T03:25:22.632Z,5.63
2018-07-20T03:26:22.629Z,5.63
2018-07-20T03:27:22.628Z,11.25
2018-07-20T03:28:22.627Z,11.25
2018-07-20T03:29:22.624Z,11.25
2018-07-20T03:30:22.616Z,11.25
2018-07-20T03:31:22.615Z,11.25
2018-07-20T03:32:22.611Z,11.25
2018-07-20T03:33:22.607Z,16.88
2018-07-20T03:34:22.607Z,16.88
2018-07-20T03:35:22.605Z,16.88
2018-07-20T03:36:22.597Z,16.88
2018-07-20T03:37:22.600Z,22.50
2018-07-20T03:38:22.595Z,22.50
2018-07-20T03:39:22.595Z,22.50
2018-07-20T03:40:22.588Z,22.50
2018-07-20T03:41:22.604Z,28.13
2018-07-20T03:42:22.582Z,28.13
2018-07-20T03:43:22.582Z,28.13
2018-07-20T03:44:22.579Z,33.75
2018-07-20T03:45:22.575Z,33.75
2018-07-20T03:46:22.568Z,33.75
2018-07-20T03:47:22.571Z,33.75
2018-07-20T03:48:22.585Z,39.38
2018-07-20T03:49:22.568Z,39.38
2018-07-20T03:50:22.562Z,39.38
2018-07-20T03:51:22.557Z,45.00
2018-07-20T03:52:22.552Z,45.00
2018-07-20T03:53:22.550Z,50.63
2018-07-20T03:54:22.545Z,50.63
2018-07-20T03:55:22.550Z,50.63
2018-07-20T03:56:22.544Z,56.25
2018-07-20T03:57:22.543Z,56.25
2018-07-20T03:58:22.536Z,61.88
2018-07-20T03:59:22.534Z,61.88
2018-07-20T04:00:22.531Z,67.50
2018-07-20T04:01:22.530Z,67.50
2018-07-20T04:02:22.562Z,73.13
2018-07-20T04:03:22.525Z,78.75
2018-07-20T04:04:22.521Z,78.75
2018-07-20T04:05:22.516Z,84.38
2018-07-20T04:06:22.515Z,84.38
2018-07-20T04:07:22.510Z,90.00
2018-07-20T04:08:22.513Z,90.00
2018-07-20T04:09:22.517Z,90.00
2018-07-20T04:10:22.531Z,90.00
2018-07-20T04:11:22.503Z,95.63
2018-07-20T04:12:22.499Z,95.63
2018-07-20T04:13:22.497Z,95.63
2018-07-20T04:14:22.490Z,95.63
2018-07-20T04:15:22.486Z,95.63
2018-07-20T04:16:22.486Z,95.63
2018-07-20T04:17:22.485Z,101.25
2018-07-20T04:18:22.480Z,106.88
2018-07-20T04:19:22.477Z,112.50
2018-07-20T04:20:22.475Z,118.13
2018-07-20T04:21:22.470Z,123.75
2018-07-20T04:22:22.479Z,123.75
2018-07-20T04:23:22.468Z,129.38
2018-07-20T04:24:22.463Z,135.00
2018-07-20T04:25:22.467Z,135.00
2018-07-20T04:26:22.454Z,135.00
2018-07-20T04:27:22.457Z,135.00
2018-07-20T04:28:22.454Z,140.63
2018-07-20T04:29:22.463Z,140.63
2018-07-20T04:30:22.444Z,146.25
2018-07-20T04:31:22.447Z,157.50
2018-07-20T04:32:22.441Z,163.13
2018-07-20T04:33:22.440Z,168.75
2018-07-20T04:34:22.434Z,174.38
2018-07-20T04:35:22.430Z,180.00
2018-07-20T04:36:22.478Z,180.00
2018-07-20T04:37:22.427Z,185.63
2018-07-20T04:38:22.426Z,185.63
2018-07-20T04:39:22.423Z,191.25
2018-07-20T04:40:22.423Z,196.88
2018-07-20T04:41:22.414Z,202.50
2018-07-20T04:42:22.411Z,208.13
2018-07-20T04:43:22.415Z,219.38
2018-07-20T04:44:22.407Z,230.63
2018-07-20T04:45:22.406Z,236.25
2018-07-20T04:46:22.405Z,241.88
2018-07-20T04:47:22.406Z,247.50
2018-07-20T04:48:22.404Z,253.13
2018-07-20T04:49:22.401Z,253.13
2018-07-20T04:50:22.404Z,258.75
2018-07-20T04:51:22.390Z,264.38
2018-07-20T04:52:22.396Z,270.00
2018-07-20T04:53:22.389Z,281.25
2018-07-20T04:54:22.382Z,292.50
2018-07-20T04:55:22.401Z,303.75
2018-07-20T04:56:22.379Z,309.38
2018-07-20T04:57:22.425Z,309.38
2018-07-20T04:58:22.388Z,315.00
2018-07-20T04:59:22.371Z,320.63
2018-07-20T05:00:22.372Z,326.25
2018-07-20T05:01:22.379Z,326.25
2018-07-20T05:02:22.366Z,337.50
2018-07-20T05:03:22.360Z,343.13
2018-07-20T05:04:22.353Z,393.75
2018-07-20T05:05:22.362Z,393.75
2018-07-20T05:06:22.350Z,360.00
2018-07-20T05:07:22.349Z,360.00
2018-07-20T05:08:22.349Z,343.13
2018-07-20T05:09:22.349Z,343.13
2018-07-20T05:10:22.347Z,343.13
2018-07-20T05:11:22.375Z,354.38
2018-07-20T05:12:22.993Z,371.25
2018-07-20T05:13:22.375Z,376.88
2018-07-20T05:14:22.334Z,382.50
2018-07-20T05:15:22.328Z,399.38
2018-07-20T05:16:22.333Z,388.13
2018-07-20T05:17:22.328Z,382.50
2018-07-20T05:18:22.320Z,382.50
2018-07-20T05:19:22.317Z,399.38
2018-07-20T05:20:22.323Z,388.13
2018-07-20T05:21:22.316Z,405.00
2018-07-20T05:22:22.312Z,405.00
2018-07-20T05:23:22.308Z,410.63
2018-07-20T05:24:22.307Z,472.50
2018-07-20T05:25:22.305Z,433.13
2018-07-20T05:26:22.302Z,444.38
2018-07-20T05:27:22.296Z,540.00
2018-07-20T05:28:22.306Z,489.38
2018-07-20T05:29:22.301Z,680.63
2018-07-20T05:30:22.294Z,658.13
2018-07-20T05:31:22.293Z,523.13
2018-07-20T05:32:22.287Z,922.50
2018-07-20T05:33:22.285Z,793.13
2018-07-20T05:34:22.283Z,815.63
2018-07-20T05:35:22.294Z,815.63
2018-07-20T05:36:22.284Z,675.00
2018-07-20T05:37:22.282Z,810.00
2018-07-20T05:38:22.280Z,652.50
2018-07-20T05:39:22.280Z,607.50
2018-07-20T05:40:22.279Z,877.50
2018-07-20T05:41:22.277Z,1113.75
2018-07-20T05:42:22.273Z,1063.13
2018-07-20T05:43:22.266Z,1130.63
2018-07-20T05:44:22.291Z,1203.75
2018-07-20T05:45:22.268Z,1192.50
2018-07-20T05:46:22.263Z,1198.13
2018-07-20T05:47:22.275Z,1215.00
2018-07-20T05:48:22.286Z,1282.50
2018-07-20T05:49:22.261Z,1327.50
2018-07-20T05:50:22.257Z,1350.00
2018-07-20T05:51:22.259Z,1327.50
2018-07-20T05:52:22.260Z,1327.50
2018-07-20T05:53:22.290Z,1383.75
2018-07-20T05:54:22.252Z,1355.63
2018-07-20T05:55:22.250Z,1406.25
2018-07-20T05:56:22.252Z,1445.63
2018-07-20T05:57:22.253Z,1423.13
2018-07-20T05:58:22.262Z,1473.75
2018-07-20T05:59:22.262Z,1563.75
2018-07-20T06:00:22.247Z,1575.00
2018-07-20T06:01:22.544Z,1603.13
2018-07-20T06:02:22.251Z,1648.13
2018-07-20T06:03:22.263Z,1687.50
2018-07-20T06:04:22.253Z,1648.13
2018-07-20T06:05:22.254Z,1710.00
2018-07-20T06:06:22.250Z,1771.88
2018-07-20T06:07:22.254Z,1732.50
2018-07-20T06:08:22.250Z,1732.50
2018-07-20T06:09:22.252Z,1771.88
2018-07-20T06:10:22.263Z,1726.88
2018-07-20T06:11:22.253Z,1687.50
2018-07-20T06:12:22.261Z,1614.38
2018-07-20T06:13:22.277Z,1738.13
2018-07-20T06:14:22.252Z,1760.63
2018-07-20T06:15:22.277Z,1890.00
2018-07-20T06:16:22.287Z,1929.38
2018-07-20T06:17:22.268Z,1845.00
2018-07-20T06:18:22.258Z,1890.00
2018-07-20T06:19:22.261Z,1912.50
2018-07-20T06:20:22.259Z,1608.75
2018-07-20T06:21:22.261Z,1170.00
2018-07-20T06:22:22.265Z,1085.63
2018-07-20T06:23:22.264Z,1158.75
2018-07-20T06:24:22.264Z,1350.00
2018-07-20T06:25:22.265Z,1783.13
2018-07-20T06:26:22.267Z,2081.25
2018-07-20T06:27:22.272Z,2137.50
2018-07-20T06:28:22.267Z,2176.88
2018-07-20T06:29:22.266Z,2205.00
2018-07-20T06:30:22.272Z,2210.63
2018-07-20T06:31:22.270Z,2233.13
2018-07-20T06:32:22.285Z,2188.13
2018-07-20T06:33:22.285Z,1833.75
2018-07-20T06:34:22.280Z,1665.00
2018-07-20T06:35:22.279Z,1721.25
2018-07-20T06:36:22.281Z,1614.38
2018-07-20T06:37:22.280Z,1226.25
2018-07-20T06:38:22.290Z,1153.13
2018-07-20T06:39:22.291Z,1153.13
2018-07-20T06:40:22.286Z,1237.50
2018-07-20T06:41:22.287Z,1164.38
2018-07-20T06:42:22.291Z,1215.00
2018-07-20T06:43:22.294Z,1164.38
2018-07-20T06:44:22.292Z,1248.75
2018-07-20T06:45:22.303Z,1141.88
2018-07-20T06:46:22.297Z,1260.00
2018-07-20T06:47:22.296Z,1136.25
2018-07-20T06:48:22.299Z,1147.50
2018-07-20T06:49:22.302Z,1254.38
2018-07-20T06:50:22.300Z,1338.75
2018-07-20T06:51:22.303Z,1310.63
2018-07-20T06:52:23.048Z,1456.88
2018-07-20T06:53:22.308Z,1760.63
2018-07-20T06:54:22.312Z,2008.13
2018-07-20T06:55:22.314Z,2041.88
2018-07-20T06:56:22.313Z,2148.75
2018-07-20T06:57:22.316Z,2109.38
2018-07-20T06:58:22.318Z,2053.13
2018-07-20T06:59:22.318Z,2418.75
2018-07-20T07:00:22.317Z,2396.25
2018-07-20T07:01:22.323Z,2317.50
2018-07-20T07:02:22.322Z,2469.38
2018-07-20T07:03:22.327Z,2733.75
2018-07-20T07:04:22.329Z,2840.63
2018-07-20T07:05:22.336Z,2913.75
2018-07-20T07:06:22.341Z,2941.88
2018-07-20T07:07:22.337Z,2874.38
2018-07-20T07:08:22.342Z,2908.13
2018-07-20T07:09:22.346Z,2801.25
2018-07-20T07:10:22.342Z,2891.25
2018-07-20T07:11:22.346Z,2975.63
2018-07-20T07:12:22.351Z,3015.00
2018-07-20T07:13:23.065Z,3093.75
2018-07-20T07:14:22.363Z,3301.88
2018-07-20T07:15:22.355Z,3510.00
2018-07-20T07:16:22.365Z,3594.38
2018-07-20T07:17:22.366Z,3375.00
2018-07-20T07:18:22.374Z,3431.25
2018-07-20T07:19:22.371Z,3616.88
2018-07-20T07:20:23.071Z,3555.00
2018-07-20T07:22:16.132Z,3538.13
2018-07-20T07:23:16.069Z,3285.00
2018-07-20T07:25:09.916Z,3611.25
2018-07-20T07:26:09.601Z,3600.00
2018-07-20T07:27:09.573Z,3768.75
2018-07-20T07:28:09.580Z,3830.63
2018-07-20T07:29:09.624Z,3819.38
2018-07-20T07:31:03.287Z,3847.50
2018-07-20T07:32:03.256Z,3993.75
2018-07-20T07:33:56.864Z,4083.75
2018-07-20T07:34:56.852Z,4162.50
2018-07-20T07:36:50.581Z,4207.50
2018-07-20T07:37:50.541Z,4269.38
2018-07-20T07:39:44.155Z,4415.63
2018-07-20T07:40:44.144Z,4623.75
2018-07-20T07:42:37.827Z,4770.00
2018-07-20T07:43:37.814Z,4545.00
2018-07-20T07:44:37.811Z,4590.00
2018-07-20T07:45:37.807Z,4876.88
2018-07-20T07:46:37.823Z,4921.88
2018-07-20T07:47:37.841Z,4691.25
2018-07-20T07:48:37.822Z,4865.63
2018-07-20T07:49:37.834Z,5034.38
2018-07-20T07:50:37.832Z,4921.88
2018-07-20T07:51:37.838Z,5056.88
2018-07-20T07:52:37.868Z,4989.38
2018-07-20T07:53:37.851Z,5315.63
2018-07-20T07:54:37.857Z,5394.38
2018-07-20T07:55:37.864Z,5265.00
2018-07-20T07:56:37.865Z,5236.88
2018-07-20T07:57:37.874Z,5270.63
2018-07-20T07:58:37.889Z,5141.25
2018-07-20T07:59:37.885Z,5101.88
2018-07-20T08:00:38.587Z,5062.50
2018-07-20T08:01:37.898Z,5163.75
2018-07-20T08:02:38.596Z,5259.38
2018-07-20T08:03:37.977Z,5355.00
2018-07-20T08:04:37.945Z,5490.00
2018-07-20T08:05:37.929Z,5360.63
2018-07-20T08:06:37.972Z,5371.88
2018-07-20T08:07:37.986Z,5433.75
2018-07-20T08:08:37.983Z,5326.88
2018-07-20T08:09:37.988Z,5191.88
2018-07-20T08:10:37.975Z,5203.13
2018-07-20T08:11:37.980Z,5141.25
2018-07-20T08:12:37.979Z,5045.63
2018-07-20T08:13:37.982Z,5203.13
2018-07-20T08:14:38.003Z,5231.25
2018-07-20T08:15:38.007Z,5124.38
2018-07-20T08:16:38.014Z,5135.63
2018-07-20T08:17:38.011Z,5011.88
2018-07-20T08:18:38.019Z,4815.00
2018-07-20T08:19:38.030Z,4927.50
2018-07-20T08:20:38.030Z,4995.00
2018-07-20T08:21:38.040Z,4893.75
2018-07-20T08:22:38.046Z,4882.50
2018-07-20T08:23:38.052Z,4938.75
2018-07-20T08:24:38.059Z,5107.50
2018-07-20T08:25:38.069Z,5321.25
2018-07-20T08:26:38.079Z,5439.38
2018-07-20T08:27:38.086Z,5248.13
2018-07-20T08:28:38.106Z,5208.75
2018-07-20T08:29:38.103Z,5349.38
2018-07-20T08:30:38.117Z,5619.38
2018-07-20T08:31:38.123Z,5760.00
2018-07-20T08:32:38.125Z,5698.13
2018-07-20T08:33:38.143Z,5568.75
2018-07-20T08:34:38.145Z,5332.50
2018-07-20T08:35:38.153Z,5214.38
2018-07-20T08:36:39.120Z,5056.88
2018-07-20T08:37:38.168Z,4871.25
2018-07-20T08:38:38.194Z,5259.38
2018-07-20T08:39:38.204Z,5360.63
2018-07-20T08:40:38.196Z,5394.38
2018-07-20T08:41:38.204Z,5394.38
2018-07-20T08:42:38.222Z,5242.50
2018-07-20T08:43:38.224Z,5332.50
2018-07-20T08:44:38.229Z,5236.88
2018-07-20T08:45:38.275Z,5034.38
2018-07-20T08:46:38.316Z,5203.13
2018-07-20T08:47:38.259Z,5388.75
2018-07-20T08:48:38.290Z,5484.38
2018-07-20T08:49:38.276Z,5433.75
2018-07-20T08:50:38.284Z,5411.25
2018-07-20T08:51:38.298Z,5591.25
2018-07-20T08:52:38.310Z,5608.13
2018-07-20T08:53:38.315Z,4921.88
2018-07-20T08:54:38.320Z,5692.50
2018-07-20T08:55:38.330Z,5771.25
2018-07-20T08:56:38.339Z,5647.50
2018-07-20T08:57:38.359Z,5529.38
2018-07-20T08:58:40.124Z,5473.13
2018-07-20T08:59:38.373Z,5388.75
2018-07-20T09:00:38.376Z,5405.63
2018-07-20T09:01:38.389Z,5625.00
2018-07-20T09:02:38.400Z,5743.13
2018-07-20T09:03:38.453Z,5844.38
2018-07-20T09:04:38.414Z,5810.63
2018-07-20T09:05:38.424Z,5776.88
2018-07-20T09:06:38.452Z,5866.88
2018-07-20T09:07:38.444Z,5737.50
2018-07-20T09:08:38.452Z,5726.25
2018-07-20T09:09:38.466Z,5771.25
2018-07-20T09:10:38.472Z,5850.00
2018-07-20T09:11:39.137Z,5956.88
2018-07-20T09:12:39.144Z,5715.00
2018-07-20T09:13:38.590Z,5540.63
2018-07-20T09:14:38.517Z,5754.38
2018-07-20T09:15:38.535Z,5906.25
2018-07-20T09:16:38.539Z,5810.63
2018-07-20T09:17:38.547Z,5743.13
2018-07-20T09:18:38.556Z,5625.00
2018-07-20T09:19:38.567Z,5523.75
2018-07-20T09:20:38.606Z,5563.13
2018-07-20T09:21:38.594Z,5658.75
2018-07-20T09:22:38.601Z,5760.00
2018-07-20T09:23:38.609Z,5833.13
2018-07-20T09:24:38.618Z,6046.88
2018-07-20T09:25:38.627Z,5855.63
2018-07-20T09:26:38.651Z,5540.63
2018-07-20T09:27:38.657Z,5366.25
2018-07-20T09:28:38.665Z,5265.00
2018-07-20T09:29:38.671Z,5461.88
2018-07-20T09:30:38.680Z,5608.13
2018-07-20T09:31:38.694Z,5540.63
2018-07-20T09:32:38.703Z,5613.75
2018-07-20T09:33:38.714Z,5771.25
2018-07-20T09:34:38.726Z,5585.63
2018-07-20T09:35:40.668Z,5242.50
2018-07-20T09:36:38.752Z,5236.88
2018-07-20T09:37:38.760Z,5293.13
2018-07-20T09:38:38.774Z,5270.63
2018-07-20T09:39:38.812Z,5377.50
2018-07-20T09:40:38.812Z,5686.88
2018-07-20T09:41:38.801Z,6170.63
2018-07-20T09:42:38.839Z,6176.25
2018-07-20T09:43:38.828Z,5895.00
2018-07-20T09:44:38.836Z,5805.00
2018-07-20T09:45:38.858Z,5979.38
2018-07-20T09:46:38.863Z,6075.00
2018-07-20T09:47:38.881Z,6176.25
2018-07-20T09:48:38.898Z,6457.50
2018-07-20T09:49:38.899Z,6435.00
2018-07-20T09:50:38.912Z,6108.75
2018-07-20T09:51:38.923Z,5923.13
2018-07-20T09:52:38.932Z,5934.38
2018-07-20T09:53:38.943Z,6030.00
2018-07-20T09:54:38.959Z,6131.25
2018-07-20T09:55:38.969Z,6114.38
2018-07-20T09:56:38.979Z,6148.13
2018-07-20T09:57:38.999Z,6221.25
2018-07-20T09:58:39.007Z,6283.13
2018-07-20T09:59:39.149Z,6238.13
2018-07-20T10:00:39.030Z,6131.25
2018-07-20T10:01:39.049Z,6142.50
2018-07-20T10:02:39.055Z,6131.25
2018-07-20T10:03:39.070Z,6041.25
2018-07-20T10:04:39.084Z,5737.50
2018-07-20T10:05:39.094Z,5731.88
2018-07-20T10:06:39.116Z,5844.38
2018-07-20T10:07:39.126Z,6035.63
2018-07-20T10:08:39.134Z,6030.00
2018-07-20T10:09:39.148Z,6058.13
2018-07-20T10:10:39.159Z,5585.63
2018-07-20T10:11:39.174Z,5675.63
2018-07-20T10:12:39.221Z,5613.75
2018-07-20T10:13:39.196Z,5715.00
2018-07-20T10:14:39.217Z,5793.75
2018-07-20T10:15:39.225Z,5760.00
2018-07-20T10:16:39.250Z,5630.63
2018-07-20T10:17:39.259Z,5630.63
2018-07-20T10:18:39.263Z,5625.00
2018-07-20T10:19:39.281Z,5495.63
2018-07-20T10:20:39.292Z,5568.75
2018-07-20T10:21:39.334Z,5653.13
2018-07-20T10:22:39.317Z,5658.75
2018-07-20T10:23:39.338Z,5591.25
2018-07-20T10:24:39.347Z,5574.38
2018-07-20T10:25:39.408Z,5540.63
2018-07-20T10:26:39.378Z,5259.38
2018-07-20T10:27:39.391Z,4601.25
2018-07-20T10:28:39.402Z,4117.50
2018-07-20T10:29:39.415Z,4044.38
2018-07-20T10:30:39.462Z,4038.75
2018-07-20T10:31:39.459Z,4426.88
2018-07-20T10:32:39.456Z,4635.00
2018-07-20T10:33:39.474Z,4876.88
2018-07-20T10:34:39.484Z,5152.50
2018-07-20T10:35:39.502Z,5540.63
2018-07-20T10:36:39.556Z,5512.50
2018-07-20T10:37:39.519Z,5017.50
2018-07-20T10:38:39.537Z,5045.63
2018-07-20T10:39:39.547Z,5540.63
2018-07-20T10:40:39.565Z,5551.88
2018-07-20T10:41:39.573Z,5743.13
2018-07-20T10:42:39.586Z,5805.00
2018-07-20T10:43:39.599Z,5743.13
2018-07-20T10:44:39.614Z,5670.00
2018-07-20T10:45:39.629Z,5900.63
2018-07-20T10:46:39.636Z,5934.38
2018-07-20T10:47:39.650Z,6153.75
2018-07-20T10:48:39.662Z,6232.50
2018-07-20T10:49:39.673Z,5940.00
2018-07-20T10:50:39.714Z,4342.50
2018-07-20T10:51:39.701Z,4365.00
2018-07-20T10:52:39.717Z,4297.50
2018-07-20T10:53:39.727Z,3718.13
2018-07-20T10:54:39.759Z,4151.25
2018-07-20T10:55:39.764Z,3408.75
2018-07-20T10:56:39.767Z,3830.63
2018-07-20T10:57:39.776Z,3476.25
2018-07-20T10:58:39.797Z,3380.63
2018-07-20T10:59:39.806Z,3560.63
2018-07-20T11:00:39.820Z,3481.88
2018-07-20T11:01:39.850Z,3555.00
2018-07-20T11:02:39.843Z,3555.00
2018-07-20T11:03:39.857Z,3661.88
2018-07-20T11:04:39.867Z,4021.88
2018-07-20T11:05:39.875Z,4224.38
2018-07-20T11:06:39.890Z,4426.88
2018-07-20T11:07:39.904Z,4702.50
2018-07-20T11:08:39.911Z,5034.38
2018-07-20T11:09:39.924Z,4905.00
2018-07-20T11:10:39.934Z,4854.38
2018-07-20T11:11:39.947Z,4736.25
2018-07-20T11:12:39.955Z,5191.88
2018-07-20T11:13:40.013Z,4466.25
2018-07-20T11:14:39.982Z,2812.50
2018-07-20T11:15:39.986Z,5017.50
2018-07-20T11:16:40.007Z,5068.13
2018-07-20T11:17:40.014Z,5242.50
2018-07-20T11:18:40.024Z,5141.25
2018-07-20T11:19:40.041Z,4854.38
2018-07-20T11:20:40.043Z,5000.63
2018-07-20T11:21:40.052Z,5332.50
2018-07-20T11:22:40.067Z,5551.88
2018-07-20T11:23:40.072Z,5585.63
2018-07-20T11:24:40.089Z,5636.25
2018-07-20T11:25:40.101Z,5647.50
2018-07-20T11:26:40.108Z,5703.75
2018-07-20T11:27:40.118Z,5754.38
2018-07-20T11:28:40.125Z,5726.25
2018-07-20T11:29:40.140Z,5321.25
2018-07-20T11:30:40.159Z,5326.88
2018-07-20T11:31:40.176Z,4584.38
2018-07-20T11:32:40.177Z,4246.88
2018-07-20T11:33:40.185Z,4168.13
2018-07-20T11:34:40.210Z,4246.88
2018-07-20T11:35:40.213Z,4123.13
2018-07-20T11:36:40.221Z,3976.88
2018-07-20T11:37:40.236Z,4179.38
2018-07-20T11:38:40.244Z,4668.75
2018-07-20T11:39:40.268Z,4741.88
2018-07-20T11:40:40.272Z,4500.00
2018-07-20T11:41:40.280Z,3442.50
2018-07-20T11:42:40.325Z,3211.88
2018-07-20T11:43:40.306Z,2250.00
2018-07-20T11:44:40.315Z,3892.50
2018-07-20T11:45:40.331Z,3881.25
2018-07-20T11:46:40.342Z,2610.00
2018-07-20T11:47:40.350Z,3740.63
2018-07-20T11:48:40.368Z,4348.13
2018-07-20T11:49:40.376Z,2176.88
2018-07-20T11:50:40.380Z,1957.50
2018-07-20T11:51:40.403Z,1890.00
2018-07-20T11:52:40.424Z,2008.13
2018-07-20T11:53:40.415Z,1968.75
2018-07-20T11:54:40.425Z,1963.13
2018-07-20T11:55:40.449Z,1991.25
2018-07-20T11:56:40.456Z,2013.75
2018-07-20T11:57:40.458Z,4455.00
2018-07-20T11:58:40.468Z,4128.75
2018-07-20T11:59:40.477Z,2036.25
2018-07-20T12:00:40.488Z,1996.88
2018-07-20T12:01:41.240Z,2688.75
2018-07-20T12:02:40.506Z,4106.25
2018-07-20T12:03:40.522Z,1951.88
2018-07-20T12:04:40.552Z,1873.13
2018-07-20T12:05:40.539Z,2244.38
2018-07-20T12:06:40.551Z,3836.25
2018-07-20T12:07:40.560Z,4055.63
2018-07-20T12:08:40.567Z,2733.75
2018-07-20T12:09:40.574Z,3093.75
2018-07-20T12:10:40.584Z,4708.13
2018-07-20T12:11:40.593Z,4455.00
2018-07-20T12:12:40.627Z,4505.63
2018-07-20T12:13:40.612Z,4258.13
2018-07-20T12:14:40.623Z,4083.75
2018-07-20T12:15:40.625Z,3943.13
2018-07-20T12:16:40.693Z,3892.50
2018-07-20T12:17:40.649Z,3982.50
2018-07-20T12:18:40.679Z,3718.13
2018-07-20T12:19:40.672Z,3926.25
2018-07-20T12:20:40.679Z,3892.50
2018-07-20T12:21:40.685Z,2823.75
2018-07-20T12:22:40.712Z,3678.75
2018-07-20T12:23:40.713Z,3622.50
2018-07-20T12:24:40.728Z,3695.63
2018-07-20T12:25:40.716Z,3780.00
2018-07-20T12:26:40.732Z,3785.63
2018-07-20T12:27:40.734Z,3746.25
2018-07-20T12:28:40.756Z,2300.63
2018-07-20T12:29:40.758Z,1681.88
2018-07-20T12:30:40.766Z,2604.38
2018-07-20T12:31:40.777Z,3442.50
2018-07-20T12:32:40.786Z,3228.75
2018-07-20T12:33:40.792Z,2626.88
2018-07-20T12:34:40.804Z,3200.63
2018-07-20T12:35:40.813Z,3116.25
2018-07-20T12:36:40.844Z,3183.75